Time;durP1;ratioP1;P1;durP2;ratioP2;P2;SDS_P1;SDS_P2;PMS_P1;PMS_P2;Temp;Humidity;BMP_temperature;BMP_pressure;BME280_temperature;BME280_humidity;BME280_pressure;Samples;Min_cycle;Max_cycle;Signal;HPM_P1;HPM_P2
2021/08/05 00:01:45;;;;;;;125.73;107.17;;;;;;;;;;5114521;28;20580;-52
2021/08/05 00:04:23;;;;;;;34.53;27.90;;;;;;;;;;5114075;28;20453;-52
2021/08/05 00:06:52;;;;;;;39.93;31.27;;;;;;;;;;5114137;28;20475;-56
2021/08/05 00:09:19;;;;;;;40.07;32.30;;;;;;;;;;5114379;28;20467;-52
2021/08/05 00:11:56;;;;;;;24.40;19.10;;;;;;;;;;5113725;28;20511;-51
2021/08/05 00:14:24;;;;;;;12.53;10.13;;;;;;;;;;5113365;28;20457;-50
2021/08/05 00:16:51;;;;;;;21.00;16.80;;;;;;;;;;5113519;28;20510;-55
2021/08/05 00:19:26;;;;;;;30.57;22.23;;;;;;;;;;5114920;28;20459;-53
2021/08/05 00:21:54;;;;;;;26.90;22.13;;;;;;;;;;5118031;28;20468;-56
2021/08/05 00:24:22;;;;;;;21.00;15.27;;;;;;;;;;5118022;28;20452;-52
2021/08/05 00:26:50;;;;;;;19.53;16.07;;;;;;;;;;5116816;28;20503;-57
2021/08/05 00:29:17;;;;;;;26.30;20.63;;;;;;;;;;5118071;28;20461;-55
2021/08/05 00:31:45;;;;;;;23.97;16.73;;;;;;;;;;5117722;28;20621;-54
2021/08/05 00:34:14;;;;;;;19.43;14.87;;;;;;;;;;5117444;28;20464;-57
2021/08/05 00:36:41;;;;;;;18.30;14.50;;;;;;;;;;5117398;28;20448;-51
2021/08/05 00:39:13;;;;;;;19.43;17.37;;;;;;;;;;5117410;28;20616;-56
2021/08/05 00:41:52;;;;;;;37.00;27.93;;;;;;;;;;5116748;28;20438;-52
2021/08/05 00:44:20;;;;;;;39.70;31.47;;;;;;;;;;5117272;28;20453;-50
2021/08/05 00:46:47;;;;;;;47.80;36.33;;;;;;;;;;5116873;28;20521;-51
2021/08/05 00:49:15;;;;;;;51.07;44.40;;;;;;;;;;5116444;28;20458;-53
2021/08/05 00:51:43;;;;;;;18.00;15.23;;;;;;;;;;5116640;28;20461;-55
2021/08/05 00:54:12;;;;;;;83.90;64.43;;;;;;;;;;5116972;28;20462;-53
2021/08/05 00:56:55;;;;;;;41.70;37.20;;;;;;;;;;5116364;28;20430;-54
2021/08/05 00:59:22;;;;;;;21.47;18.73;;;;;;;;;;5096969;28;20488;-51
2021/08/05 01:01:52;;;;;;;24.30;19.67;;;;;;;;;;5096905;28;20510;-57
2021/08/05 01:04:32;;;;;;;88.53;78.87;;;;;;;;;;5096920;28;20445;-53
2021/08/05 01:07:03;;;;;;;54.37;48.47;;;;;;;;;;5096449;28;20473;-51
2021/08/05 01:09:36;;;;;;;23.27;19.97;;;;;;;;;;5096992;28;20507;-56
2021/08/05 01:12:24;;;;;;;19.20;16.17;;;;;;;;;;5097120;28;20476;-55
2021/08/05 01:14:54;;;;;;;15.90;13.97;;;;;;;;;;5096609;28;20440;-53
2021/08/05 01:17:23;;;;;;;77.53;69.20;;;;;;;;;;5095137;28;20836;-55
2021/08/05 01:19:59;;;;;;;121.00;90.33;;;;;;;;;;5096124;28;20474;-54
2021/08/05 01:22:32;;;;;;;61.60;41.03;;;;;;;;;;5097250;28;20451;-56
2021/08/05 01:25:06;;;;;;;15.30;12.47;;;;;;;;;;5097134;28;20516;-54
2021/08/05 01:27:36;;;;;;;108.73;75.17;;;;;;;;;;5097885;28;20472;-56
2021/08/05 01:30:06;;;;;;;15.67;14.07;;;;;;;;;;5097109;28;20533;-54
2021/08/05 01:32:58;;;;;;;108.30;80.27;;;;;;;;;;5096180;28;20481;-55
2021/08/05 01:35:32;;;;;;;192.03;149.07;;;;;;;;;;5097067;28;20489;-52
2021/08/05 01:38:08;;;;;;;259.13;224.37;;;;;;;;;;5077485;28;20442;-57
2021/08/05 01:43:42;;;;;;;80.37;70.43;;;;;;;;;;5096537;28;20423;-55
2021/08/05 01:46:11;;;;;;;56.20;47.97;;;;;;;;;;5096400;28;20550;-53
2021/08/05 01:48:58;;;;;;;80.73;70.97;;;;;;;;;;5095831;28;20426;-55
2021/08/05 01:51:27;;;;;;;60.80;50.13;;;;;;;;;;5088779;28;20533;-56
2021/08/05 01:53:56;;;;;;;60.33;48.93;;;;;;;;;;5116743;28;20461;-57
2021/08/05 01:56:26;;;;;;;58.60;44.87;;;;;;;;;;5117025;28;20496;-53
2021/08/05 01:58:59;;;;;;;32.73;25.73;;;;;;;;;;5116335;28;20459;-52
2021/08/05 02:01:29;;;;;;;30.00;25.67;;;;;;;;;;5116015;28;20448;-55
2021/08/05 02:04:17;;;;;;;20.30;18.13;;;;;;;;;;5116230;28;20449;-57
2021/08/05 02:06:49;;;;;;;18.53;16.57;;;;;;;;;;5114772;28;20490;-58
2021/08/05 02:09:18;;;;;;;16.63;13.93;;;;;;;;;;5116690;28;20454;-56
2021/08/05 02:11:48;;;;;;;22.47;20.07;;;;;;;;;;5116454;28;20529;-53
2021/08/05 02:14:18;;;;;;;14.20;11.83;;;;;;;;;;5116135;28;20460;-55
2021/08/05 02:16:46;;;;;;;18.00;15.77;;;;;;;;;;5116314;28;20429;-52
2021/08/05 02:19:18;;;;;;;23.40;19.00;;;;;;;;;;5115982;28;20439;-54
2021/08/05 02:21:46;;;;;;;39.00;27.67;;;;;;;;;;5115900;28;20538;-53
2021/08/05 02:24:14;;;;;;;39.03;30.53;;;;;;;;;;5116056;28;20641;-52
2021/08/05 02:26:44;;;;;;;39.43;27.30;;;;;;;;;;5115593;28;20528;-50
2021/08/05 02:29:27;;;;;;;32.07;26.10;;;;;;;;;;5113969;28;20484;-54
2021/08/05 02:32:01;;;;;;;27.13;23.40;;;;;;;;;;5108410;28;20474;-62
2021/08/05 02:34:30;;;;;;;30.13;24.30;;;;;;;;;;5116929;28;20439;-58
2021/08/05 02:37:00;;;;;;;32.17;26.43;;;;;;;;;;5116363;28;20455;-53
2021/08/05 02:39:35;;;;;;;49.97;34.40;;;;;;;;;;5115960;28;20451;-57
2021/08/05 02:42:03;;;;;;;39.47;29.60;;;;;;;;;;5115614;28;20435;-55
2021/08/05 02:44:31;;;;;;;27.27;23.77;;;;;;;;;;5115445;28;20461;-52
2021/08/05 02:47:02;;;;;;;35.83;27.23;;;;;;;;;;5115954;28;20483;-54
2021/08/05 02:49:30;;;;;;;18.77;15.27;;;;;;;;;;5115777;28;20463;-54
2021/08/05 02:51:58;;;;;;;29.10;24.30;;;;;;;;;;5115966;28;20492;-55
2021/08/05 02:54:27;;;;;;;64.80;41.57;;;;;;;;;;5116260;28;20499;-53
2021/08/05 02:56:54;;;;;;;60.53;42.80;;;;;;;;;;5115778;28;20451;-55
2021/08/05 02:59:23;;;;;;;46.80;37.73;;;;;;;;;;5115620;28;20468;-54
2021/08/05 03:01:57;;;;;;;44.83;31.47;;;;;;;;;;5116298;28;20451;-58
2021/08/05 03:04:31;;;;;;;14.00;11.20;;;;;;;;;;5114265;28;20513;-56
2021/08/05 03:07:08;;;;;;;14.67;12.33;;;;;;;;;;5116609;28;20476;-56
2021/08/05 03:09:35;;;;;;;27.87;20.53;;;;;;;;;;5115229;28;20532;-59
2021/08/05 03:12:03;;;;;;;18.00;13.77;;;;;;;;;;5115871;28;20441;-57
2021/08/05 03:14:32;;;;;;;14.53;12.40;;;;;;;;;;5115357;28;20598;-51
2021/08/05 03:17:03;;;;;;;20.13;15.77;;;;;;;;;;5115227;28;20434;-54
2021/08/05 03:19:31;;;;;;;23.87;20.17;;;;;;;;;;5114951;28;20670;-55
2021/08/05 03:22:08;;;;;;;26.93;18.63;;;;;;;;;;5116130;28;20452;-57
2021/08/05 03:24:47;;;;;;;27.47;20.60;;;;;;;;;;5115086;28;20451;-51
2021/08/05 03:27:15;;;;;;;18.87;13.13;;;;;;;;;;5113915;28;20556;-55
2021/08/05 03:29:42;;;;;;;24.90;21.40;;;;;;;;;;5115539;28;20452;-51
2021/08/05 03:32:09;;;;;;;15.10;12.33;;;;;;;;;;5115737;28;20866;-52
2021/08/05 03:34:41;;;;;;;13.07;11.73;;;;;;;;;;5115516;28;20423;-57
2021/08/05 03:37:22;;;;;;;18.67;15.27;;;;;;;;;;5115267;28;20447;-54
2021/08/05 03:39:50;;;;;;;14.87;12.30;;;;;;;;;;5115227;28;20459;-55
2021/08/05 03:42:17;;;;;;;13.83;11.20;;;;;;;;;;5115033;28;20454;-53
2021/08/05 03:44:47;;;;;;;13.40;10.40;;;;;;;;;;5115012;28;20447;-57
2021/08/05 03:47:15;;;;;;;15.37;11.63;;;;;;;;;;5113156;28;20480;-55
2021/08/05 03:49:44;;;;;;;13.33;11.93;;;;;;;;;;5115407;28;20447;-55
2021/08/05 03:52:29;;;;;;;24.47;16.03;;;;;;;;;;5114557;28;20724;-50
2021/08/05 03:54:57;;;;;;;12.40;11.30;;;;;;;;;;5117121;28;20452;-53
2021/08/05 03:57:25;;;;;;;12.67;11.37;;;;;;;;;;5119083;28;20626;-56
2021/08/05 04:02:55;;;;;;;13.70;10.93;;;;;;;;;;5117821;28;20446;-54
2021/08/05 04:05:24;;;;;;;14.00;12.27;;;;;;;;;;5117871;28;20451;-55
2021/08/05 04:07:52;;;;;;;12.27;10.80;;;;;;;;;;5119043;28;20489;-52
2021/08/05 04:10:19;;;;;;;13.40;11.67;;;;;;;;;;5119043;28;20456;-56
2021/08/05 04:13:00;;;;;;;13.37;12.00;;;;;;;;;;5118393;28;20443;-55
2021/08/05 04:15:27;;;;;;;15.20;12.63;;;;;;;;;;5118139;28;20443;-55
2021/08/05 04:17:55;;;;;;;15.80;11.30;;;;;;;;;;5117322;28;20467;-57
2021/08/05 04:20:51;;;;;;;15.77;12.70;;;;;;;;;;5117201;28;20440;-56
2021/08/05 04:23:20;;;;;;;15.23;11.83;;;;;;;;;;5115175;28;20458;-57
2021/08/05 04:25:47;;;;;;;14.27;12.80;;;;;;;;;;5118246;28;20446;-51
2021/08/05 04:28:14;;;;;;;16.73;13.57;;;;;;;;;;5118186;28;20953;-54
2021/08/05 04:30:42;;;;;;;15.13;13.57;;;;;;;;;;5118135;28;20436;-55
2021/08/05 04:33:09;;;;;;;13.57;12.17;;;;;;;;;;5118423;28;20451;-54
2021/08/05 04:35:37;;;;;;;19.60;13.30;;;;;;;;;;5117897;28;20449;-55
2021/08/05 04:38:09;;;;;;;15.67;14.00;;;;;;;;;;5118683;28;20463;-54
2021/08/05 04:40:38;;;;;;;13.90;12.40;;;;;;;;;;5117301;28;20452;-54
2021/08/05 04:43:12;;;;;;;16.53;12.67;;;;;;;;;;5118382;28;20456;-54
2021/08/05 04:45:41;;;;;;;14.23;12.73;;;;;;;;;;5118506;28;20436;-53
2021/08/05 04:48:09;;;;;;;14.93;12.70;;;;;;;;;;5118128;28;20571;-55
2021/08/05 04:50:38;;;;;;;15.73;12.10;;;;;;;;;;5118011;28;20530;-54
2021/08/05 04:53:07;;;;;;;13.87;12.47;;;;;;;;;;5118651;28;20465;-57
2021/08/05 04:55:34;;;;;;;16.17;13.43;;;;;;;;;;5118238;28;20456;-55
2021/08/05 04:58:31;;;;;;;19.93;12.00;;;;;;;;;;5118112;28;20459;-55
2021/08/05 05:01:03;;;;;;;14.57;11.73;;;;;;;;;;5117691;28;20486;-58
2021/08/05 05:03:33;;;;;;;15.30;13.37;;;;;;;;;;5117450;28;20448;-56
2021/08/05 05:06:21;;;;;;;15.27;12.63;;;;;;;;;;5117137;28;20455;-57
2021/08/05 05:09:00;;;;;;;13.73;11.87;;;;;;;;;;5090366;28;20457;-55
2021/08/05 05:11:33;;;;;;;15.47;13.83;;;;;;;;;;5086816;28;20544;-56
2021/08/05 05:14:06;;;;;;;13.60;12.17;;;;;;;;;;5090061;28;20718;-54
2021/08/05 05:16:38;;;;;;;15.30;12.97;;;;;;;;;;5081710;28;20453;-57
2021/08/05 05:19:23;;;;;;;16.13;14.40;;;;;;;;;;5085549;28;20536;-58
2021/08/05 05:22:06;;;;;;;15.00;12.60;;;;;;;;;;5098426;28;20438;-58
2021/08/05 05:24:47;;;;;;;17.07;13.43;;;;;;;;;;5097248;28;20437;-56
2021/08/05 05:27:14;;;;;;;16.83;15.10;;;;;;;;;;5097173;28;20907;-54
2021/08/05 05:29:42;;;;;;;14.83;12.63;;;;;;;;;;5096913;28;20463;-57
2021/08/05 05:32:17;;;;;;;21.73;14.37;;;;;;;;;;5096930;28;20460;-56
2021/08/05 05:34:46;;;;;;;22.10;16.10;;;;;;;;;;5097071;28;20762;-54
2021/08/05 05:37:15;;;;;;;16.53;13.13;;;;;;;;;;5091359;28;20439;-56
2021/08/05 05:39:56;;;;;;;15.20;13.70;;;;;;;;;;5091473;28;20439;-56
2021/08/05 05:42:23;;;;;;;14.53;13.10;;;;;;;;;;5076333;28;20448;-55
2021/08/05 05:44:50;;;;;;;20.50;13.47;;;;;;;;;;5077258;28;20487;-55
2021/08/05 05:47:20;;;;;;;15.93;13.90;;;;;;;;;;5076269;28;20521;-54
2021/08/05 05:49:49;;;;;;;15.67;12.57;;;;;;;;;;5076883;28;20463;-54
2021/08/05 05:52:17;;;;;;;15.57;12.30;;;;;;;;;;5077245;28;20474;-54
2021/08/05 05:54:54;;;;;;;16.60;13.53;;;;;;;;;;5076520;28;20420;-56
2021/08/05 05:57:29;;;;;;;14.83;12.57;;;;;;;;;;5080169;28;20430;-55
2021/08/05 05:59:57;;;;;;;12.63;11.33;;;;;;;;;;5095857;28;20470;-57
2021/08/05 06:02:34;;;;;;;14.50;12.63;;;;;;;;;;5096500;28;20482;-54
2021/08/05 06:05:11;;;;;;;15.60;13.17;;;;;;;;;;5085862;28;20480;-56
2021/08/05 06:07:46;;;;;;;13.37;11.97;;;;;;;;;;5095827;28;20506;-53
2021/08/05 06:10:16;;;;;;;16.00;12.87;;;;;;;;;;5076598;28;20459;-58
2021/08/05 06:12:43;;;;;;;12.47;10.60;;;;;;;;;;5058893;28;20491;-56
2021/08/05 06:15:40;;;;;;;15.77;12.53;;;;;;;;;;5076063;28;20511;-57
2021/08/05 06:18:08;;;;;;;14.03;10.90;;;;;;;;;;5094680;28;20438;-53
2021/08/05 06:20:36;;;;;;;15.20;11.53;;;;;;;;;;5095666;28;20493;-54
2021/08/05 06:23:21;;;;;;;17.30;12.30;;;;;;;;;;5094995;28;20482;-57
2021/08/05 06:25:48;;;;;;;11.73;10.07;;;;;;;;;;5095617;28;20482;-55
2021/08/05 06:28:15;;;;;;;12.67;10.70;;;;;;;;;;5095985;28;20488;-53
2021/08/05 06:31:03;;;;;;;15.17;11.07;;;;;;;;;;5090672;28;20439;-57
2021/08/05 06:33:32;;;;;;;14.23;11.23;;;;;;;;;;5090249;28;20480;-54
2021/08/05 06:36:02;;;;;;;11.87;10.67;;;;;;;;;;5095914;28;20454;-56
2021/08/05 06:39:06;;;;;;;11.87;10.67;;;;;;;;;;5095684;28;20476;-57
2021/08/05 06:41:34;;;;;;;11.57;10.03;;;;;;;;;;5075582;28;20460;-54
2021/08/05 06:44:05;;;;;;;11.67;10.43;;;;;;;;;;5091034;28;20468;-54
2021/08/05 06:46:32;;;;;;;14.20;12.40;;;;;;;;;;5077347;28;20644;-57
2021/08/05 06:49:01;;;;;;;18.63;11.50;;;;;;;;;;5091039;28;20496;-56
2021/08/05 06:51:58;;;;;;;14.80;12.23;;;;;;;;;;5083272;28;20470;-53
2021/08/05 06:54:33;;;;;;;13.20;11.90;;;;;;;;;;5086179;28;20443;-59
2021/08/05 06:57:02;;;;;;;12.93;11.73;;;;;;;;;;5095126;28;20472;-54
2021/08/05 06:59:44;;;;;;;13.40;12.00;;;;;;;;;;5085353;28;20488;-56
2021/08/05 07:02:12;;;;;;;13.57;11.60;;;;;;;;;;5094321;28;20471;-58
2021/08/05 07:04:40;;;;;;;11.90;10.17;;;;;;;;;;5094449;28;20459;-54
2021/08/05 07:10:12;;;;;;;12.70;10.10;;;;;;;;;;5089791;28;20470;-51
2021/08/05 07:12:39;;;;;;;12.80;11.50;;;;;;;;;;5094135;28;20467;-54
2021/08/05 07:15:11;;;;;;;10.13;8.93;;;;;;;;;;5094259;28;20482;-55
2021/08/05 07:17:40;;;;;;;10.50;9.47;;;;;;;;;;5093920;28;20498;-56
2021/08/05 07:20:10;;;;;;;10.87;9.77;;;;;;;;;;5093988;28;20445;-56
2021/08/05 07:22:43;;;;;;;13.70;10.13;;;;;;;;;;5094267;28;20440;-58
2021/08/05 07:25:12;;;;;;;11.33;9.53;;;;;;;;;;5079411;28;20568;-53
2021/08/05 07:27:45;;;;;;;11.97;9.63;;;;;;;;;;5091387;28;20492;-56
2021/08/05 07:30:20;;;;;;;13.83;12.40;;;;;;;;;;5080364;28;20467;-55
2021/08/05 07:32:59;;;;;;;11.80;10.60;;;;;;;;;;5089946;28;20420;-55
2021/08/05 07:35:48;;;;;;;11.50;9.40;;;;;;;;;;5083778;28;20440;-56
2021/08/05 07:38:16;;;;;;;11.63;10.20;;;;;;;;;;5097016;28;20442;-56
2021/08/05 07:40:44;;;;;;;10.10;9.00;;;;;;;;;;5097002;28;20472;-55
2021/08/05 07:43:18;;;;;;;9.70;8.67;;;;;;;;;;5097168;28;20466;-54
2021/08/05 07:45:58;;;;;;;15.83;11.50;;;;;;;;;;5097149;28;20722;-57
2021/08/05 07:48:26;;;;;;;11.20;10.00;;;;;;;;;;5083292;28;20488;-56
2021/08/05 07:51:06;;;;;;;11.53;10.43;;;;;;;;;;5091386;28;20479;-57
2021/08/05 07:53:36;;;;;;;14.73;11.87;;;;;;;;;;5096471;28;20438;-54
2021/08/05 07:56:22;;;;;;;14.07;11.90;;;;;;;;;;5095086;28;20455;-57
2021/08/05 07:58:49;;;;;;;13.67;12.37;;;;;;;;;;5095466;28;20811;-56
2021/08/05 08:01:17;;;;;;;13.13;11.87;;;;;;;;;;5094700;28;20460;-55
2021/08/05 08:03:44;;;;;;;12.57;11.27;;;;;;;;;;5094652;28;20513;-58
2021/08/05 08:06:13;;;;;;;11.10;9.93;;;;;;;;;;5095056;28;20456;-57
2021/08/05 08:08:40;;;;;;;15.00;10.43;;;;;;;;;;5095632;28;20495;-55
2021/08/05 08:11:15;;;;;;;12.93;10.87;;;;;;;;;;5096660;28;20440;-56
2021/08/05 08:13:42;;;;;;;13.07;10.93;;;;;;;;;;5098219;28;20458;-58
2021/08/05 08:16:10;;;;;;;10.97;9.87;;;;;;;;;;5098303;28;20479;-52
2021/08/05 08:18:37;;;;;;;12.57;11.27;;;;;;;;;;5085039;28;20461;-56
2021/08/05 08:21:05;;;;;;;13.00;11.70;;;;;;;;;;5082448;28;20469;-57
2021/08/05 08:23:40;;;;;;;12.67;11.33;;;;;;;;;;5088795;28;20405;-56
2021/08/05 08:26:07;;;;;;;11.57;9.50;;;;;;;;;;5077206;28;20452;-54
2021/08/05 08:28:35;;;;;;;14.00;12.50;;;;;;;;;;5077354;28;20491;-55
2021/08/05 08:31:13;;;;;;;12.47;11.27;;;;;;;;;;5076878;28;20468;-56
2021/08/05 08:33:43;;;;;;;12.17;10.97;;;;;;;;;;5076933;28;20460;-55
2021/08/05 08:36:11;;;;;;;11.40;10.13;;;;;;;;;;5077896;28;20475;-58
2021/08/05 08:38:47;;;;;;;12.03;10.50;;;;;;;;;;5077110;28;20429;-52
2021/08/05 08:41:16;;;;;;;19.93;11.67;;;;;;;;;;5076454;28;20460;-57
2021/08/05 08:43:48;;;;;;;13.83;12.43;;;;;;;;;;5093192;28;20440;-55
2021/08/05 08:46:35;;;;;;;14.37;12.10;;;;;;;;;;5076687;28;20448;-57
2021/08/05 08:49:02;;;;;;;14.30;12.83;;;;;;;;;;5086593;28;20515;-57
2021/08/05 08:51:31;;;;;;;12.53;10.93;;;;;;;;;;5077088;28;20483;-59
2021/08/05 08:54:10;;;;;;;14.23;10.23;;;;;;;;;;5076613;28;20468;-57
2021/08/05 08:56:41;;;;;;;19.03;12.43;;;;;;;;;;5079051;28;20931;-57
2021/08/05 08:59:08;;;;;;;12.90;11.60;;;;;;;;;;5076419;28;20433;-57
2021/08/05 09:01:56;;;;;;;13.43;11.40;;;;;;;;;;5075711;28;20468;-57
2021/08/05 09:04:23;;;;;;;12.73;10.70;;;;;;;;;;5076326;28;20751;-49
2021/08/05 09:06:52;;;;;;;12.30;10.90;;;;;;;;;;5075098;28;20465;-56
2021/08/05 09:09:23;;;;;;;11.60;10.50;;;;;;;;;;5089550;28;20484;-56
2021/08/05 09:11:52;;;;;;;11.17;10.07;;;;;;;;;;5075771;28;20467;-58
2021/08/05 09:14:37;;;;;;;12.50;11.30;;;;;;;;;;5075429;28;20448;-57
2021/08/05 09:17:16;;;;;;;10.50;9.40;;;;;;;;;;5074769;28;20453;-55
2021/08/05 09:20:07;;;;;;;11.80;10.60;;;;;;;;;;5081043;28;20457;-62
2021/08/05 09:22:41;;;;;;;10.77;9.60;;;;;;;;;;5088204;28;20462;-55
2021/08/05 09:25:33;;;;;;;11.90;10.63;;;;;;;;;;5078462;28;20456;-58
2021/08/05 09:28:02;;;;;;;12.37;10.13;;;;;;;;;;5074937;28;20511;-58
2021/08/05 09:30:32;;;;;;;10.80;9.70;;;;;;;;;;5079640;28;20445;-57
2021/08/05 09:33:04;;;;;;;11.93;10.77;;;;;;;;;;5088342;28;20471;-58
2021/08/05 09:35:32;;;;;;;11.80;8.83;;;;;;;;;;5085772;28;20479;-59
2021/08/05 09:38:16;;;;;;;9.93;9.03;;;;;;;;;;5094872;28;20440;-56
2021/08/05 09:40:44;;;;;;;10.97;9.87;;;;;;;;;;5088069;28;20472;-57
2021/08/05 09:43:15;;;;;;;14.37;10.23;;;;;;;;;;5094894;28;20490;-59
2021/08/05 09:45:43;;;;;;;9.50;8.30;;;;;;;;;;5094478;28;20474;-61
2021/08/05 09:48:11;;;;;;;11.50;9.53;;;;;;;;;;5094808;28;20484;-59
2021/08/05 09:51:02;;;;;;;9.70;8.70;;;;;;;;;;5087274;28;20504;-56
2021/08/05 09:53:29;;;;;;;49.90;38.90;;;;;;;;;;5074984;28;20507;-57
2021/08/05 09:56:09;;;;;;;12.43;10.00;;;;;;;;;;5075537;28;20457;-57
2021/08/05 09:58:45;;;;;;;11.17;8.90;;;;;;;;;;5093973;28;20451;-58
2021/08/05 10:01:13;;;;;;;13.40;9.00;;;;;;;;;;5094511;28;20470;-56
2021/08/05 10:03:43;;;;;;;9.97;8.43;;;;;;;;;;5092456;28;20521;-58
2021/08/05 10:06:11;;;;;;;16.03;10.17;;;;;;;;;;5093426;28;20555;-56
2021/08/05 10:08:39;;;;;;;10.93;7.30;;;;;;;;;;5092707;28;20468;-54
2021/08/05 10:11:40;;;;;;;9.53;8.53;;;;;;;;;;5093098;28;20510;-58
2021/08/05 10:14:21;;;;;;;8.30;7.00;;;;;;;;;;5092644;28;20450;-56
2021/08/05 10:16:53;;;;;;;7.63;6.00;;;;;;;;;;5101168;28;20471;-56
2021/08/05 10:19:20;;;;;;;8.60;7.80;;;;;;;;;;5084343;28;20465;-59
2021/08/05 10:21:49;;;;;;;7.83;6.50;;;;;;;;;;5078585;28;20547;-56
2021/08/05 10:24:21;;;;;;;7.77;7.07;;;;;;;;;;5071473;28;20518;-55
2021/08/05 10:26:56;;;;;;;8.20;7.00;;;;;;;;;;5079685;28;20448;-58
2021/08/05 10:29:26;;;;;;;6.50;5.40;;;;;;;;;;5080637;28;20627;-58
2021/08/05 10:31:54;;;;;;;6.77;5.87;;;;;;;;;;5091135;28;20459;-57
2021/08/05 10:34:22;;;;;;;7.53;5.70;;;;;;;;;;5081556;28;20449;-55
2021/08/05 10:36:51;;;;;;;8.07;6.73;;;;;;;;;;5071341;28;20920;-55
2021/08/05 10:39:21;;;;;;;8.80;6.47;;;;;;;;;;5083989;28;20476;-56
2021/08/05 10:41:50;;;;;;;9.20;6.93;;;;;;;;;;5092046;28;20436;-57
2021/08/05 10:44:30;;;;;;;8.43;6.00;;;;;;;;;;5092393;28;20452;-56
2021/08/05 10:46:59;;;;;;;7.37;5.87;;;;;;;;;;5081224;28;20467;-57
2021/08/05 10:49:28;;;;;;;9.37;5.57;;;;;;;;;;5090550;28;20486;-56
2021/08/05 10:52:06;;;;;;;7.43;5.40;;;;;;;;;;5080698;28;20484;-58
2021/08/05 10:54:56;;;;;;;7.13;6.43;;;;;;;;;;5072160;28;20507;-55
2021/08/05 10:57:47;;;;;;;7.73;5.70;;;;;;;;;;5088693;28;20464;-54
2021/08/05 11:00:20;;;;;;;7.07;4.47;;;;;;;;;;5075790;28;20441;-55
2021/08/05 11:02:50;;;;;;;8.60;4.03;;;;;;;;;;5080283;28;20452;-55
2021/08/05 11:05:43;;;;;;;5.70;4.40;;;;;;;;;;5084521;28;20457;-57
2021/08/05 11:08:24;;;;;;;8.20;5.37;;;;;;;;;;5068845;28;20596;-61
2021/08/05 11:11:13;;;;;;;6.53;5.23;;;;;;;;;;5063938;28;20767;-56
2021/08/05 11:13:41;;;;;;;12.73;6.50;;;;;;;;;;5069398;28;20461;-56
2021/08/05 11:19:23;;;;;;;5.93;4.10;;;;;;;;;;5071718;28;20506;-54
2021/08/05 11:22:20;;;;;;;7.03;3.20;;;;;;;;;;5068682;28;20456;-56
2021/08/05 11:24:56;;;;;;;5.07;3.00;;;;;;;;;;5073190;28;20460;-57
2021/08/05 11:27:31;;;;;;;4.20;3.30;;;;;;;;;;5071330;28;20487;-56
2021/08/05 11:30:00;;;;;;;5.33;3.87;;;;;;;;;;5072852;28;20819;-57
2021/08/05 11:32:37;;;;;;;5.83;3.57;;;;;;;;;;5072643;28;20491;-57
2021/08/05 11:35:22;;;;;;;5.87;3.40;;;;;;;;;;5072410;28;20447;-58
2021/08/05 11:38:08;;;;;;;4.90;3.93;;;;;;;;;;5071835;28;20477;-56
2021/08/05 11:40:48;;;;;;;4.93;4.00;;;;;;;;;;5070205;28;20457;-57
2021/08/05 11:43:22;;;;;;;6.17;4.70;;;;;;;;;;5071052;28;20464;-57
2021/08/05 11:46:20;;;;;;;5.70;4.30;;;;;;;;;;5063801;28;20433;-57
2021/08/05 11:48:48;;;;;;;7.57;3.50;;;;;;;;;;4972485;28;20520;-52
2021/08/05 11:51:24;;;;;;;4.50;3.63;;;;;;;;;;5039104;28;20480;-55
2021/08/05 11:53:53;;;;;;;4.83;3.73;;;;;;;;;;5052540;28;20458;-59
2021/08/05 11:56:31;;;;;;;11.00;5.30;;;;;;;;;;5071756;28;20460;-57
2021/08/05 11:59:13;;;;;;;4.90;3.30;;;;;;;;;;5072339;28;20511;-57
2021/08/05 12:02:14;;;;;;;4.50;3.53;;;;;;;;;;5065047;28;20696;-56
2021/08/05 12:04:44;;;;;;;4.90;3.43;;;;;;;;;;5056740;28;20473;-57
2021/08/05 12:07:30;;;;;;;6.17;4.10;;;;;;;;;;5056971;28;20490;-56
2021/08/05 12:10:04;;;;;;;6.07;3.57;;;;;;;;;;5064192;28;20509;-55
2021/08/05 12:12:37;;;;;;;4.70;3.87;;;;;;;;;;5058868;28;20457;-58
2021/08/05 12:15:16;;;;;;;5.70;4.50;;;;;;;;;;5072008;28;20468;-58
2021/08/05 12:17:44;;;;;;;7.57;4.10;;;;;;;;;;5073131;28;20437;-58
2021/08/05 12:20:13;;;;;;;5.33;3.80;;;;;;;;;;5073984;28;20464;-58
2021/08/05 12:23:11;;;;;;;7.00;5.87;;;;;;;;;;5073744;28;20456;-55
2021/08/05 12:25:47;;;;;;;5.93;4.20;;;;;;;;;;5069593;28;20441;-55
2021/08/05 12:28:24;;;;;;;9.30;6.67;;;;;;;;;;5055015;28;20458;-56
2021/08/05 12:31:17;;;;;;;4.90;3.30;;;;;;;;;;5066608;28;21149;-57
2021/08/05 12:33:52;;;;;;;9.60;3.70;;;;;;;;;;5068231;28;20696;-59
2021/08/05 12:36:19;;;;;;;4.40;3.67;;;;;;;;;;5052871;28;20457;-57
2021/08/05 12:38:48;;;;;;;4.87;3.00;;;;;;;;;;5060341;28;20442;-56
2021/08/05 12:41:21;;;;;;;5.80;3.93;;;;;;;;;;5054032;28;20430;-56
2021/08/05 12:43:55;;;;;;;4.63;3.60;;;;;;;;;;5067986;28;20441;-57
2021/08/05 12:46:24;;;;;;;4.73;3.60;;;;;;;;;;5061635;28;20457;-55
2021/08/05 12:48:59;;;;;;;6.53;3.60;;;;;;;;;;5054586;28;20842;-58
2021/08/05 12:51:32;;;;;;;4.13;2.07;;;;;;;;;;5067746;28;20505;-56
2021/08/05 12:57:23;;;;;;;7.30;3.70;;;;;;;;;;5075331;28;20508;-57
2021/08/05 12:59:56;;;;;;;3.40;2.40;;;;;;;;;;5064047;28;20749;-57
2021/08/05 13:02:24;;;;;;;7.47;6.43;;;;;;;;;;5054056;28;20499;-57
2021/08/05 13:04:51;;;;;;;5.43;2.90;;;;;;;;;;5053380;28;20449;-60
2021/08/05 13:07:25;;;;;;;4.50;2.80;;;;;;;;;;5064411;28;20456;-57
2021/08/05 13:10:00;;;;;;;5.13;2.70;;;;;;;;;;5068220;28;20546;-58
2021/08/05 13:12:37;;;;;;;3.73;2.60;;;;;;;;;;5073444;28;20449;-55
2021/08/05 13:15:19;;;;;;;5.33;2.90;;;;;;;;;;5059727;28;20461;-57
2021/08/05 13:18:03;;;;;;;5.70;2.60;;;;;;;;;;5061766;28;20511;-58
2021/08/05 13:20:31;;;;;;;7.33;3.50;;;;;;;;;;5052603;28;20477;-58
2021/08/05 13:23:02;;;;;;;4.27;2.70;;;;;;;;;;5058077;28;20471;-58
2021/08/05 13:28:40;;;;;;;5.40;3.30;;;;;;;;;;5066338;28;20620;-57
2021/08/05 13:31:14;;;;;;;4.63;2.27;;;;;;;;;;5079687;28;20515;-58
2021/08/05 13:33:55;;;;;;;3.23;2.10;;;;;;;;;;5073826;28;20460;-58
2021/08/05 13:36:40;;;;;;;3.53;2.37;;;;;;;;;;5071398;28;20449;-53
2021/08/05 13:39:10;;;;;;;3.70;2.50;;;;;;;;;;5075899;28;20521;-58
2021/08/05 13:41:43;;;;;;;5.03;2.70;;;;;;;;;;5092671;28;20818;-56
2021/08/05 13:44:12;;;;;;;4.70;2.90;;;;;;;;;;5090987;28;20468;-58
2021/08/05 13:46:39;;;;;;;4.33;2.17;;;;;;;;;;5080997;28;20452;-58
2021/08/05 13:49:06;;;;;;;4.30;2.77;;;;;;;;;;5084663;28;20474;-57
2021/08/05 13:51:40;;;;;;;5.10;3.27;;;;;;;;;;5082237;28;20639;-58
2021/08/05 13:54:08;;;;;;;4.13;2.30;;;;;;;;;;5090750;28;20460;-58
2021/08/05 13:56:47;;;;;;;6.30;3.57;;;;;;;;;;5089822;28;20456;-58
2021/08/05 13:59:35;;;;;;;4.20;2.77;;;;;;;;;;5102582;28;20522;-58
2021/08/05 14:02:04;;;;;;;5.07;2.60;;;;;;;;;;5088232;28;20468;-58
2021/08/05 14:04:31;;;;;;;3.37;2.30;;;;;;;;;;5089328;28;20456;-56
2021/08/05 14:07:00;;;;;;;3.30;2.60;;;;;;;;;;5085673;28;20461;-56
2021/08/05 14:09:29;;;;;;;4.20;2.83;;;;;;;;;;5089385;28;20473;-58
2021/08/05 14:11:59;;;;;;;5.20;2.80;;;;;;;;;;5099064;28;20458;-56
2021/08/05 14:14:29;;;;;;;5.60;3.70;;;;;;;;;;5082850;28;20465;-56
2021/08/05 14:16:59;;;;;;;4.00;2.70;;;;;;;;;;5090632;28;20486;-55
2021/08/05 14:19:34;;;;;;;4.37;2.50;;;;;;;;;;5092884;28;20470;-57
2021/08/05 14:22:08;;;;;;;6.37;4.70;;;;;;;;;;5092805;28;20452;-62
2021/08/05 14:24:37;;;;;;;4.67;2.97;;;;;;;;;;5092618;28;20889;-55
2021/08/05 14:27:10;;;;;;;3.03;2.03;;;;;;;;;;5091498;28;20504;-57
2021/08/05 14:29:40;;;;;;;3.00;2.10;;;;;;;;;;5052391;28;20807;-56
2021/08/05 14:32:10;;;;;;;3.10;1.90;;;;;;;;;;5052266;28;20466;-56
2021/08/05 14:34:43;;;;;;;3.20;1.93;;;;;;;;;;5053474;28;20462;-59
2021/08/05 14:37:10;;;;;;;7.60;2.43;;;;;;;;;;5077113;28;20496;-56
2021/08/05 14:39:38;;;;;;;4.00;2.20;;;;;;;;;;5095920;28;20468;-58
2021/08/05 14:42:10;;;;;;;4.43;3.23;;;;;;;;;;5091919;28;20867;-55
2021/08/05 14:44:47;;;;;;;4.30;3.70;;;;;;;;;;5092530;28;20452;-56
2021/08/05 14:47:17;;;;;;;6.17;3.10;;;;;;;;;;5093330;28;20448;-54
2021/08/05 14:50:07;;;;;;;5.00;4.10;;;;;;;;;;5093325;28;20503;-57
2021/08/05 14:52:35;;;;;;;5.10;2.67;;;;;;;;;;5093092;28;20523;-58
2021/08/05 14:55:09;;;;;;;4.50;2.70;;;;;;;;;;5092597;28;20476;-57
2021/08/05 14:57:41;;;;;;;4.80;2.27;;;;;;;;;;5093024;28;20456;-58
2021/08/05 15:00:38;;;;;;;6.00;4.50;;;;;;;;;;5085255;28;20453;-57
2021/08/05 15:03:05;;;;;;;4.83;3.60;;;;;;;;;;5071992;28;20889;-56
2021/08/05 15:05:38;;;;;;;5.30;3.50;;;;;;;;;;5071226;28;20440;-56
2021/08/05 15:08:07;;;;;;;4.07;2.80;;;;;;;;;;5070591;28;20434;-55
2021/08/05 15:10:35;;;;;;;5.40;2.63;;;;;;;;;;5082287;28;20476;-53
2021/08/05 15:13:02;;;;;;;2.83;1.57;;;;;;;;;;5090101;28;20464;-57
2021/08/05 15:15:33;;;;;;;5.47;2.70;;;;;;;;;;5086188;28;20493;-57
2021/08/05 15:18:01;;;;;;;7.43;5.30;;;;;;;;;;5089971;28;20621;-55
2021/08/05 15:20:29;;;;;;;7.00;5.87;;;;;;;;;;5090908;28;20424;-56